createdAt,value
2023-07-18T00:02:00.211Z,98249.25
2023-07-18T00:05:03.178Z,98249.66
2023-07-18T00:08:06.381Z,98247.22
2023-07-18T00:11:09.501Z,98251.53
2023-07-18T00:14:12.433Z,98260.31
2023-07-18T00:17:16.645Z,98251.31
2023-07-18T00:20:20.531Z,98251.31
2023-07-18T00:23:23.590Z,98253.38
2023-07-18T00:26:26.503Z,98257.69
2023-07-18T00:29:29.263Z,98261.56
2023-07-18T00:32:32.412Z,98252.97
2023-07-18T00:35:36.170Z,98261.97
2023-07-18T00:38:41.506Z,98262.19
2023-07-18T00:41:44.559Z,98258.72
2023-07-18T00:44:50.527Z,98261.56
2023-07-18T00:47:53.891Z,98261.56
2023-07-18T00:50:56.835Z,98258.72
2023-07-18T00:54:00.461Z,98258.72
2023-07-18T00:57:03.702Z,98253.78
2023-07-18T01:00:12.399Z,98251.72
2023-07-18T01:03:17.534Z,98243.53
2023-07-18T01:06:20.370Z,98259.13
2023-07-18T01:09:23.601Z,98257.84
2023-07-18T01:12:26.432Z,98257.44
2023-07-18T01:15:34.417Z,98261.53
2023-07-18T01:18:38.906Z,98257.03
2023-07-18T01:21:43.632Z,98260.31
2023-07-18T01:24:46.811Z,98261.31
2023-07-18T01:27:51.463Z,98262.72
2023-07-18T01:30:56.980Z,98269.88
2023-07-18T01:33:59.824Z,98281.28
2023-07-18T01:37:04.149Z,98279.44
2023-07-18T01:40:14.276Z,98280.22
2023-07-18T01:43:17.185Z,98289.63
2023-07-18T01:46:20.258Z,98287.56
2023-07-18T01:49:24.268Z,98291.25
2023-07-18T01:52:28.789Z,98286.53
2023-07-18T01:55:31.874Z,98285.69
2023-07-18T01:58:36.635Z,98291.97
2023-07-18T02:01:39.601Z,98286.22
2023-07-18T02:04:42.842Z,98287.22
2023-07-18T02:07:46.481Z,98287.59
2023-07-18T02:10:49.834Z,98286.97
2023-07-18T02:13:52.700Z,98301.13
2023-07-18T02:16:55.793Z,98298.06
2023-07-18T02:19:59.123Z,98296.59
2023-07-18T02:23:02.303Z,98291.47
2023-07-18T02:26:05.971Z,98303.13
2023-07-18T02:29:08.977Z,98294.13
2023-07-18T02:32:12.151Z,98295.34
2023-07-18T02:35:20.264Z,98300.47
2023-07-18T02:38:24.075Z,98302.09
2023-07-18T02:41:27.783Z,98295.63
2023-07-18T02:44:33.752Z,98298.25
2023-07-18T02:47:36.900Z,98296.81
2023-07-18T02:50:39.831Z,98301.28
2023-07-18T02:53:42.954Z,98316.81
2023-07-18T02:56:46.172Z,98314.50
2023-07-18T02:59:49.137Z,98319.03
2023-07-18T03:02:53.285Z,98323.13
2023-07-18T03:05:56.672Z,98327.81
2023-07-18T03:08:59.534Z,98327.19
2023-07-18T03:12:05.462Z,98326.19
2023-07-18T03:15:12.171Z,98322.28
2023-07-18T03:18:15.486Z,98330.84
2023-07-18T03:21:18.981Z,98329.84
2023-07-18T03:24:22.256Z,98329.44
2023-07-18T03:27:25.363Z,98324.41
2023-07-18T03:30:28.222Z,98324.66
2023-07-18T03:33:31.368Z,98332.03
2023-07-18T03:36:36.560Z,98328.78
2023-07-18T03:39:40.734Z,98323.03
2023-07-18T03:42:44.727Z,98336.16
2023-07-18T03:45:47.721Z,98332.47
2023-07-18T03:48:52.894Z,98331.06
2023-07-18T03:51:56.368Z,98333.78
2023-07-18T03:54:59.420Z,98340.19
2023-07-18T03:58:03.096Z,98338.34
2023-07-18T04:01:12.124Z,98340.44
2023-07-18T04:04:15.358Z,98337.63
2023-07-18T04:07:19.363Z,98343.41
2023-07-18T04:10:22.765Z,98347.28
2023-07-18T04:13:28.831Z,98335.47
2023-07-18T04:16:37.410Z,98341.84
2023-07-18T04:19:42.553Z,98341.13
2023-07-18T04:22:47.588Z,98358.19
2023-07-18T04:25:59.935Z,98369.22
2023-07-18T04:29:06.510Z,98367.44
2023-07-18T04:32:12.782Z,98379.34
2023-07-18T04:35:15.832Z,98377.78
2023-07-18T04:38:22.667Z,98371.34
2023-07-18T04:41:25.527Z,98385.50
2023-07-18T04:44:29.746Z,98379.56
2023-07-18T04:47:33.773Z,98383.88
2023-07-18T04:50:38.318Z,98381.69
2023-07-18T04:53:41.535Z,98385.09
2023-07-18T04:56:46.220Z,98385.53
2023-07-18T04:59:49.994Z,98387.84
2023-07-18T05:02:53.019Z,98393.38
2023-07-18T05:05:58.301Z,98386.25
2023-07-18T05:09:01.947Z,98397.34
2023-07-18T05:12:05.549Z,98399.44
2023-07-18T05:15:09.456Z,98411.75
2023-07-18T05:18:12.655Z,98405.19
2023-07-18T05:21:16.031Z,98411.97
2023-07-18T05:24:20.459Z,98422.03
2023-07-18T05:27:23.644Z,98413.00
2023-07-18T05:30:29.627Z,98421.09
2023-07-18T05:33:34.173Z,98426.81
2023-07-18T05:36:38.404Z,98425.06
2023-07-18T05:39:43.808Z,98424.41
2023-07-18T05:42:53.366Z,98421.25
2023-07-18T05:45:56.950Z,98420.63
2023-07-18T05:49:02.981Z,98426.88
2023-07-18T05:52:06.561Z,98438.19
2023-07-18T05:55:11.432Z,98441.59
2023-07-18T05:58:15.001Z,98443.56
2023-07-18T06:01:18.716Z,98450.66
2023-07-18T06:04:22.225Z,98455.38
2023-07-18T06:07:26.888Z,98452.78
2023-07-18T06:10:30.317Z,98465.44
2023-07-18T06:13:33.212Z,98467.09
2023-07-18T06:16:36.204Z,98468.91
2023-07-18T06:19:40.896Z,98467.38
2023-07-18T06:22:46.376Z,98482.41
2023-07-18T06:25:49.264Z,98478.72
2023-07-18T06:28:55.148Z,98470.84
2023-07-18T06:31:58.373Z,98471.94
2023-07-18T06:35:16.679Z,98472.84
2023-07-18T06:38:26.870Z,98470.88
2023-07-18T06:41:30.075Z,98481.78
2023-07-18T06:44:34.283Z,98484.56
2023-07-18T06:47:38.203Z,98492.16
2023-07-18T06:50:48.320Z,98483.25
2023-07-18T06:53:53.688Z,98493.50
2023-07-18T06:56:57.058Z,98492.00
2023-07-18T07:00:01.415Z,98493.00
2023-07-18T07:03:05.672Z,98495.31
2023-07-18T07:06:12.979Z,98502.31
2023-07-18T07:09:16.004Z,98505.09
2023-07-18T07:12:34.355Z,98497.91
2023-07-18T07:15:39.325Z,98499.88
2023-07-18T07:18:42.493Z,98501.97
2023-07-18T07:21:45.970Z,98505.72
2023-07-18T07:24:49.229Z,98505.03
2023-07-18T07:27:52.313Z,98497.66
2023-07-18T07:30:55.524Z,98504.44
2023-07-18T07:33:58.978Z,98498.22
2023-07-18T07:37:02.258Z,98501.03
2023-07-18T07:40:09.079Z,98495.31
2023-07-18T07:43:14.235Z,98490.50
2023-07-18T07:46:18.047Z,98496.69
2023-07-18T07:49:22.780Z,98492.41
2023-07-18T07:52:25.758Z,98494.81
2023-07-18T07:55:29.593Z,98503.97
2023-07-18T07:58:32.888Z,98504.19
2023-07-18T08:01:35.801Z,98505.38
2023-07-18T08:04:39.767Z,98505.78
2023-07-18T08:07:44.690Z,98488.38
2023-07-18T08:10:47.706Z,98498.84
2023-07-18T08:13:55.372Z,98500.22
2023-07-18T08:16:58.730Z,98505.97
2023-07-18T08:20:02.359Z,98505.94
2023-07-18T08:23:09.545Z,98505.16
2023-07-18T08:26:12.756Z,98496.19
2023-07-18T08:29:16.050Z,98497.81
2023-07-18T08:32:19.064Z,98489.03
2023-07-18T08:35:22.598Z,98492.09
2023-07-18T08:38:25.592Z,98496.03
2023-07-18T08:41:29.064Z,98492.72
2023-07-18T08:44:33.082Z,98493.47
2023-07-18T08:47:36.175Z,98485.41
2023-07-18T08:50:41.512Z,98491.06
2023-07-18T08:53:44.658Z,98490.06
2023-07-18T08:56:47.827Z,98482.16
2023-07-18T08:59:50.993Z,98484.09
2023-07-18T09:02:54.072Z,98485.47
2023-07-18T09:05:59.376Z,98473.97
2023-07-18T09:09:02.550Z,98479.28
2023-07-18T09:12:06.561Z,98464.41
2023-07-18T09:15:20.314Z,98473.16
2023-07-18T09:18:23.409Z,98468.72
2023-07-18T09:21:26.659Z,98459.88
2023-07-18T09:24:34.473Z,98473.13
2023-07-18T09:27:38.081Z,98451.94
2023-07-18T09:30:41.411Z,98446.50
2023-07-18T09:33:45.366Z,98448.69
2023-07-18T09:37:01.382Z,98437.69
2023-07-18T09:40:04.651Z,98442.56
2023-07-18T09:43:08.357Z,98442.34
2023-07-18T09:46:15.695Z,98437.88
2023-07-18T09:49:19.995Z,98437.31
2023-07-18T09:52:28.095Z,98428.69
2023-07-18T09:55:32.387Z,98434.09
2023-07-18T09:58:39.609Z,98427.16
2023-07-18T10:01:44.004Z,98421.88
2023-07-18T10:04:47.864Z,98412.50
2023-07-18T10:07:51.440Z,98413.72
2023-07-18T10:11:09.526Z,98406.16
2023-07-18T10:14:14.149Z,98403.94
2023-07-18T10:17:43.814Z,98403.31
2023-07-18T10:20:59.797Z,98408.13
2023-07-18T10:24:29.929Z,98393.00
2023-07-18T10:27:43.809Z,98389.34
2023-07-18T10:30:47.990Z,98384.97
2023-07-18T10:34:26.425Z,98382.81
2023-07-18T10:37:32.290Z,98386.34
2023-07-18T10:40:40.953Z,98381.31
2023-07-18T10:43:49.426Z,98388.56
2023-07-18T10:46:52.907Z,98371.50
2023-07-18T10:49:56.875Z,98366.63
2023-07-18T10:53:01.084Z,98365.63
2023-07-18T10:56:10.149Z,98355.31
2023-07-18T10:59:16.474Z,98359.13
2023-07-18T11:02:23.305Z,98356.38
2023-07-18T11:05:26.708Z,98342.84
2023-07-18T11:08:31.635Z,98343.69
2023-07-18T11:11:39.210Z,98339.56
2023-07-18T11:14:42.812Z,98343.41
2023-07-18T11:17:46.382Z,98332.03
2023-07-18T11:20:49.506Z,98335.81
2023-07-18T11:23:52.500Z,98329.84
2023-07-18T11:27:19.604Z,98327.16
2023-07-18T11:30:23.490Z,98323.28
2023-07-18T11:33:30.536Z,98317.75
2023-07-18T11:36:35.067Z,98315.63
2023-07-18T11:39:38.029Z,98310.69
2023-07-18T11:42:52.088Z,98308.47
2023-07-18T11:45:58.302Z,98302.94
2023-07-18T11:49:03.040Z,98297.56
2023-07-18T11:52:07.771Z,98289.56
2023-07-18T11:55:10.986Z,98282.88
2023-07-18T11:58:13.951Z,98282.13
2023-07-18T12:01:18.026Z,98274.31
2023-07-18T12:04:21.335Z,98271.84
2023-07-18T12:07:25.249Z,98269.38
2023-07-18T12:10:30.372Z,98264.66
2023-07-18T12:13:34.024Z,98263.31
2023-07-18T12:16:39.581Z,98258.09
2023-07-18T12:19:42.903Z,98263.69
2023-07-18T12:22:46.692Z,98267.81
2023-07-18T12:25:49.628Z,98261.44
2023-07-18T12:28:56.560Z,98253.41
2023-07-18T12:31:59.955Z,98254.78
2023-07-18T12:35:07.954Z,98251.00
2023-07-18T12:38:12.762Z,98247.63
2023-07-18T12:41:16.151Z,98244.38
2023-07-18T12:44:24.170Z,98245.53
2023-07-18T12:47:30.370Z,98244.91
2023-07-18T12:50:34.195Z,98250.56
2023-07-18T12:53:37.173Z,98233.13
2023-07-18T12:56:41.262Z,98231.28
2023-07-18T12:59:48.449Z,98232.06
2023-07-18T13:02:52.787Z,98228.94
2023-07-18T13:05:56.691Z,98236.06
2023-07-18T13:09:01.215Z,98235.16
2023-07-18T13:12:07.783Z,98231.97
2023-07-18T13:15:12.592Z,98218.00
2023-07-18T13:18:15.511Z,98213.66
2023-07-18T13:21:18.673Z,98207.44
2023-07-18T13:24:22.125Z,98206.19
2023-07-18T13:27:26.748Z,98198.56
2023-07-18T13:30:30.615Z,98195.34
2023-07-18T13:33:33.843Z,98195.59
2023-07-18T13:36:39.273Z,98189.00
2023-07-18T13:39:42.818Z,98174.91
2023-07-18T13:42:46.104Z,98180.72
2023-07-18T13:45:50.778Z,98168.97
2023-07-18T13:48:55.634Z,98169.41
2023-07-18T13:51:59.658Z,98174.44
2023-07-18T13:55:03.799Z,98166.81
2023-07-18T13:58:07.229Z,98159.94
2023-07-18T14:01:11.166Z,98153.34
2023-07-18T14:04:18.244Z,98143.03
2023-07-18T14:07:21.787Z,98154.88
2023-07-18T14:10:25.844Z,98142.78
2023-07-18T14:13:29.313Z,98137.59
2023-07-18T14:16:32.780Z,98136.06
2023-07-18T14:19:35.934Z,98126.56
2023-07-18T14:22:41.717Z,98119.97
2023-07-18T14:25:51.217Z,98126.78
2023-07-18T14:28:56.479Z,98123.19
2023-07-18T14:31:59.965Z,98140.22
2023-07-18T14:35:03.077Z,98136.75
2023-07-18T14:38:06.295Z,98142.09
2023-07-18T14:41:16.930Z,98138.78
2023-07-18T14:44:23.636Z,98130.28
2023-07-18T14:47:31.209Z,98125.22
2023-07-18T14:50:40.937Z,98109.72
2023-07-18T14:53:45.916Z,98110.50
2023-07-18T14:56:54.450Z,98100.25
2023-07-18T14:59:59.298Z,98085.31
2023-07-18T15:03:04.708Z,98075.72
2023-07-18T15:06:09.016Z,98080.31
2023-07-18T15:09:13.952Z,98069.28
2023-07-18T15:12:17.573Z,98059.19
2023-07-18T15:15:21.629Z,98054.25
2023-07-18T15:18:28.089Z,98051.13
2023-07-18T15:21:32.121Z,98040.75
2023-07-18T15:24:36.290Z,98021.53
2023-07-18T15:27:41.651Z,98021.22
2023-07-18T15:30:44.943Z,98025.44
2023-07-18T15:33:48.323Z,98019.88
2023-07-18T15:36:51.717Z,98010.19
2023-07-18T15:39:56.816Z,98007.75
2023-07-18T15:43:00.457Z,98008.66
2023-07-18T15:46:05.189Z,98010.63
2023-07-18T15:49:08.113Z,98008.72
2023-07-18T15:52:11.054Z,98013.28
2023-07-18T15:55:17.502Z,98005.44
2023-07-18T15:58:20.363Z,98005.56
2023-07-18T16:01:25.133Z,98006.56
2023-07-18T16:04:28.388Z,97998.06
2023-07-18T16:07:31.534Z,97993.88
2023-07-18T16:10:34.445Z,97997.34
2023-07-18T16:13:37.821Z,98001.50
2023-07-18T16:16:41.672Z,98010.09
2023-07-18T16:19:45.739Z,97997.94
2023-07-18T16:22:50.863Z,98003.09
2023-07-18T16:25:54.326Z,98008.44
2023-07-18T16:28:57.562Z,97993.81
2023-07-18T16:32:01.588Z,98002.03
2023-07-18T16:35:05.882Z,97998.03
2023-07-18T16:38:09.122Z,97991.56
2023-07-18T16:41:12.230Z,97998.03
2023-07-18T16:44:18.671Z,98001.88
2023-07-18T16:47:24.782Z,97998.81
2023-07-18T16:50:28.049Z,97990.28
2023-07-18T16:53:31.137Z,97995.69
2023-07-18T16:56:36.530Z,97980.56
2023-07-18T16:59:39.935Z,97977.13
2023-07-18T17:02:43.125Z,97987.75
2023-07-18T17:05:46.220Z,97986.09
2023-07-18T17:08:49.102Z,98006.97
2023-07-18T17:11:53.556Z,98020.78
2023-07-18T17:14:58.551Z,98003.47
2023-07-18T17:18:01.559Z,98017.28
2023-07-18T17:21:06.381Z,98025.66
2023-07-18T17:24:10.189Z,98014.34
2023-07-18T17:27:14.803Z,98007.84
2023-07-18T17:30:21.157Z,98005.69
2023-07-18T17:33:27.012Z,98004.56
2023-07-18T17:36:30.427Z,97995.38
2023-07-18T17:39:33.645Z,97978.88
2023-07-18T17:42:36.599Z,97971.72
2023-07-18T17:45:39.902Z,97962.63
2023-07-18T17:48:43.462Z,97953.16
2023-07-18T17:51:47.380Z,97965.06
2023-07-18T17:54:51.249Z,97964.34
2023-07-18T17:57:55.088Z,97952.97
2023-07-18T18:00:58.216Z,97956.47
2023-07-18T18:04:02.199Z,97947.53
2023-07-18T18:07:06.173Z,97948.88
2023-07-18T18:10:09.658Z,97941.50
2023-07-18T18:13:14.601Z,97945.22
2023-07-18T18:16:18.714Z,97937.97
2023-07-18T18:19:23.788Z,97930.84
2023-07-18T18:22:26.952Z,97940.16
2023-07-18T18:25:30.488Z,97942.53
2023-07-18T18:28:33.822Z,97936.84
2023-07-18T18:31:37.158Z,97943.06
2023-07-18T18:34:50.136Z,97944.78
2023-07-18T18:38:04.211Z,97944.56
2023-07-18T18:41:07.324Z,97940.34
2023-07-18T18:44:10.691Z,97940.03
2023-07-18T18:47:14.009Z,97937.75
2023-07-18T18:50:22.311Z,97939.34
2023-07-18T18:53:27.439Z,97926.38
2023-07-18T18:56:30.836Z,97926.28
2023-07-18T18:59:34.255Z,97900.34
2023-07-18T19:02:39.337Z,97904.94
2023-07-18T19:05:42.513Z,97901.16
2023-07-18T19:08:47.986Z,97904.31
2023-07-18T19:11:51.906Z,97897.56
2023-07-18T19:14:58.034Z,97898.13
2023-07-18T19:18:02.516Z,97895.88
2023-07-18T19:21:07.062Z,97891.16
2023-07-18T19:24:12.671Z,97866.09
2023-07-18T19:27:15.977Z,97870.22
2023-07-18T19:30:19.031Z,97869.63
2023-07-18T19:33:21.883Z,97857.66
2023-07-18T19:36:25.246Z,97850.09
2023-07-18T19:39:28.309Z,97855.84
2023-07-18T19:42:31.262Z,97849.69
2023-07-18T19:45:34.314Z,97848.56
2023-07-18T19:48:37.734Z,97849.22
2023-07-18T19:51:41.557Z,97849.22
2023-07-18T19:54:44.739Z,97844.28
2023-07-18T19:57:49.457Z,97842.56
2023-07-18T20:00:52.432Z,97827.53
2023-07-18T20:03:59.873Z,97818.84
2023-07-18T20:07:03.440Z,97826.34
2023-07-18T20:10:07.144Z,97836.28
2023-07-18T20:13:10.612Z,97833.28
2023-07-18T20:16:13.555Z,97822.22
2023-07-18T20:19:17.421Z,97837.19
2023-07-18T20:22:24.159Z,97827.59
2023-07-18T20:25:27.257Z,97833.75
2023-07-18T20:28:31.404Z,97843.97
2023-07-18T20:31:35.005Z,97833.94
2023-07-18T20:34:39.443Z,97831.75
2023-07-18T20:37:42.951Z,97821.50
2023-07-18T20:40:46.617Z,97829.00
2023-07-18T20:43:49.789Z,97831.41
2023-07-18T20:46:53.071Z,97827.13
2023-07-18T20:49:57.167Z,97832.22
2023-07-18T20:53:00.266Z,97831.19
2023-07-18T20:56:03.312Z,97828.59
2023-07-18T20:59:07.224Z,97820.91
2023-07-18T21:02:10.363Z,97815.13
2023-07-18T21:05:13.417Z,97806.19
2023-07-18T21:08:16.388Z,97807.22
2023-07-18T21:11:20.228Z,97794.88
2023-07-18T21:14:24.784Z,97792.94
2023-07-18T21:17:27.828Z,97790.28
2023-07-18T21:20:30.852Z,97792.50
2023-07-18T21:23:34.003Z,97788.34
2023-07-18T21:26:36.999Z,97790.66
2023-07-18T21:29:39.983Z,97784.97
2023-07-18T21:32:43.369Z,97782.75
2023-07-18T21:35:47.173Z,97784.88
2023-07-18T21:38:50.251Z,97779.97
2023-07-18T21:41:53.447Z,97784.53
2023-07-18T21:44:57.520Z,97787.06
2023-07-18T21:48:00.693Z,97785.13
2023-07-18T21:51:05.299Z,97793.47
2023-07-18T21:54:11.453Z,97788.16
2023-07-18T21:57:15.525Z,97780.34
2023-07-18T22:00:19.804Z,97776.97
2023-07-18T22:03:22.966Z,97778.69
2023-07-18T22:06:26.500Z,97772.66
2023-07-18T22:09:29.755Z,97771.50
2023-07-18T22:12:32.892Z,97769.50
2023-07-18T22:15:36.011Z,97763.00
2023-07-18T22:18:39.441Z,97762.72
2023-07-18T22:21:42.499Z,97763.63
2023-07-18T22:24:45.471Z,97755.13
2023-07-18T22:27:48.726Z,97762.69
2023-07-18T22:30:52.301Z,97748.38
2023-07-18T22:33:55.348Z,97747.78
2023-07-18T22:36:58.484Z,97740.69
2023-07-18T22:40:01.279Z,97739.94
2023-07-18T22:43:05.682Z,97732.19
2023-07-18T22:46:08.657Z,97729.38
2023-07-18T22:49:11.948Z,97727.84
2023-07-18T22:52:20.229Z,97723.75
2023-07-18T22:55:23.458Z,97713.41
2023-07-18T22:58:26.263Z,97703.47
2023-07-18T23:01:29.503Z,97708.88
2023-07-18T23:04:32.803Z,97719.00
2023-07-18T23:07:36.925Z,97715.13
2023-07-18T23:10:40.257Z,97704.53
2023-07-18T23:13:43.016Z,97704.16
2023-07-18T23:16:46.153Z,97729.25
2023-07-18T23:19:50.238Z,97721.06
2023-07-18T23:22:53.382Z,97714.56
2023-07-18T23:25:56.387Z,97710.13
2023-07-18T23:28:59.487Z,97716.34
2023-07-18T23:32:02.586Z,97707.41
2023-07-18T23:35:06.286Z,97707.47
2023-07-18T23:38:09.591Z,97700.38
2023-07-18T23:41:12.346Z,97696.03
2023-07-18T23:44:15.586Z,97689.97
2023-07-18T23:47:18.884Z,97681.84
2023-07-18T23:50:22.098Z,97684.06
2023-07-18T23:53:25.042Z,97685.09
2023-07-18T23:56:28.067Z,97674.03
2023-07-18T23:59:31.105Z,97659.28
